sensor_id;sensor_type;location;lat;lon;timestamp;pressure;altitude;pressure_sealevel;temperature;humidity
4085;BME280;2057;50.858;6.572;2023-05-01T00:00:03;100486.84;;;11.95;92.06
4085;BME280;2057;50.858;6.572;2023-05-01T00:02:29;100494.28;;;11.90;91.53
4085;BME280;2057;50.858;6.572;2023-05-01T00:04:55;100488.19;;;11.87;93.02
4085;BME280;2057;50.858;6.572;2023-05-01T00:07:21;100483.31;;;11.72;93.26
4085;BME280;2057;50.858;6.572;2023-05-01T00:09:46;100482.09;;;11.64;93.35
4085;BME280;2057;50.858;6.572;2023-05-01T00:12:12;100480.38;;;11.44;93.24
4085;BME280;2057;50.858;6.572;2023-05-01T00:14:37;100479.53;;;11.44;94.20
4085;BME280;2057;50.858;6.572;2023-05-01T00:17:02;100474.22;;;11.39;94.37
4085;BME280;2057;50.858;6.572;2023-05-01T00:19:28;100470.34;;;11.10;96.66
4085;BME280;2057;50.858;6.572;2023-05-01T00:21:53;100471.09;;;11.07;96.22
4085;BME280;2057;50.858;6.572;2023-05-01T00:24:18;100470.53;;;11.33;95.17
4085;BME280;2057;50.858;6.572;2023-05-01T00:26:44;100473.50;;;10.86;95.85
4085;BME280;2057;50.858;6.572;2023-05-01T00:29:09;100460.44;;;10.96;97.08
4085;BME280;2057;50.858;6.572;2023-05-01T00:31:35;100464.63;;;10.96;96.79
4085;BME280;2057;50.858;6.572;2023-05-01T00:34:00;100459.47;;;10.94;97.85
4085;BME280;2057;50.858;6.572;2023-05-01T00:36:26;100450.88;;;11.10;98.35
4085;BME280;2057;50.858;6.572;2023-05-01T00:38:51;100449.06;;;11.08;96.55
4085;BME280;2057;50.858;6.572;2023-05-01T00:41:16;100448.00;;;10.85;98.06
4085;BME280;2057;50.858;6.572;2023-05-01T00:43:42;100450.91;;;10.92;97.56
4085;BME280;2057;50.858;6.572;2023-05-01T00:46:08;100447.28;;;11.05;97.87
4085;BME280;2057;50.858;6.572;2023-05-01T00:48:34;100448.00;;;11.03;97.60
4085;BME280;2057;50.858;6.572;2023-05-01T00:51:00;100443.78;;;11.21;97.11
4085;BME280;2057;50.858;6.572;2023-05-01T00:53:28;100439.16;;;11.32;96.43
4085;BME280;2057;50.858;6.572;2023-05-01T00:55:55;100436.03;;;11.38;97.16
4085;BME280;2057;50.858;6.572;2023-05-01T00:58:21;100435.41;;;11.24;95.97
4085;BME280;2057;50.858;6.572;2023-05-01T01:00:48;100432.16;;;11.46;96.23
4085;BME280;2057;50.858;6.572;2023-05-01T01:03:13;100430.06;;;11.37;96.21
4085;BME280;2057;50.858;6.572;2023-05-01T01:05:42;100433.16;;;11.50;95.37
4085;BME280;2057;50.858;6.572;2023-05-01T01:08:28;100423.44;;;11.41;94.70
4085;BME280;2057;50.858;6.572;2023-05-01T01:11:11;100418.78;;;11.50;94.18
4085;BME280;2057;50.858;6.572;2023-05-01T01:13:45;100413.09;;;11.56;95.10
4085;BME280;2057;50.858;6.572;2023-05-01T01:16:21;100417.16;;;11.52;95.09
4085;BME280;2057;50.858;6.572;2023-05-01T01:18:49;100414.38;;;11.46;95.85
4085;BME280;2057;50.858;6.572;2023-05-01T01:21:30;100411.94;;;11.29;97.31
4085;BME280;2057;50.858;6.572;2023-05-01T01:32:31;100396.22;;;11.38;97.81
4085;BME280;2057;50.858;6.572;2023-05-01T01:35:11;100387.56;;;10.95;100.00
4085;BME280;2057;50.858;6.572;2023-05-01T01:38:05;100397.31;;;11.06;100.00
4085;BME280;2057;50.858;6.572;2023-05-01T01:40:52;100386.09;;;11.01;100.00
4085;BME280;2057;50.858;6.572;2023-05-01T01:43:21;100383.91;;;11.08;100.00
4085;BME280;2057;50.858;6.572;2023-05-01T01:45:52;100380.16;;;11.20;100.00
4085;BME280;2057;50.858;6.572;2023-05-01T01:48:23;100378.91;;;11.29;99.89
4085;BME280;2057;50.858;6.572;2023-05-01T01:50:52;100382.66;;;11.38;99.39
4085;BME280;2057;50.858;6.572;2023-05-01T01:53:20;100375.84;;;11.37;98.99
4085;BME280;2057;50.858;6.572;2023-05-01T01:55:49;100374.25;;;11.39;98.84
4085;BME280;2057;50.858;6.572;2023-05-01T01:58:17;100373.28;;;11.37;98.29
4085;BME280;2057;50.858;6.572;2023-05-01T02:00:45;100365.25;;;11.27;98.59
4085;BME280;2057;50.858;6.572;2023-05-01T02:03:12;100367.81;;;11.27;98.18
4085;BME280;2057;50.858;6.572;2023-05-01T02:05:39;100358.25;;;11.41;97.96
4085;BME280;2057;50.858;6.572;2023-05-01T02:08:07;100355.66;;;11.40;97.51
4085;BME280;2057;50.858;6.572;2023-05-01T02:10:34;100353.34;;;11.46;96.89
4085;BME280;2057;50.858;6.572;2023-05-01T02:13:00;100352.56;;;11.47;96.95
4085;BME280;2057;50.858;6.572;2023-05-01T02:15:28;100357.03;;;11.53;96.36
4085;BME280;2057;50.858;6.572;2023-05-01T02:17:54;100358.94;;;11.58;95.83
4085;BME280;2057;50.858;6.572;2023-05-01T02:20:20;100359.19;;;11.43;94.95
4085;BME280;2057;50.858;6.572;2023-05-01T02:22:47;100351.47;;;11.42;96.14
4085;BME280;2057;50.858;6.572;2023-05-01T02:25:13;100350.72;;;11.44;95.47
4085;BME280;2057;50.858;6.572;2023-05-01T02:27:58;100340.31;;;11.38;95.79
4085;BME280;2057;50.858;6.572;2023-05-01T02:30:24;100342.03;;;11.39;96.07
4085;BME280;2057;50.858;6.572;2023-05-01T02:32:50;100341.59;;;11.48;95.77
4085;BME280;2057;50.858;6.572;2023-05-01T02:35:15;100340.44;;;11.41;96.35
4085;BME280;2057;50.858;6.572;2023-05-01T02:37:42;100334.16;;;11.53;96.89
4085;BME280;2057;50.858;6.572;2023-05-01T02:40:10;100326.00;;;11.40;96.47
4085;BME280;2057;50.858;6.572;2023-05-01T02:42:36;100327.72;;;11.22;96.77
4085;BME280;2057;50.858;6.572;2023-05-01T02:45:05;100323.09;;;11.33;98.16
4085;BME280;2057;50.858;6.572;2023-05-01T02:47:36;100316.38;;;11.33;97.54
4085;BME280;2057;50.858;6.572;2023-05-01T02:50:03;100312.03;;;11.30;98.85
4085;BME280;2057;50.858;6.572;2023-05-01T02:52:30;100316.13;;;11.27;98.37
4085;BME280;2057;50.858;6.572;2023-05-01T02:54:56;100308.41;;;11.25;98.86
4085;BME280;2057;50.858;6.572;2023-05-01T02:57:22;100301.97;;;11.34;98.87
4085;BME280;2057;50.858;6.572;2023-05-01T02:59:47;100301.47;;;11.21;98.55
4085;BME280;2057;50.858;6.572;2023-05-01T03:09:55;100289.56;;;11.01;99.20
4085;BME280;2057;50.858;6.572;2023-05-01T03:30:20;100273.06;;;10.53;100.00
4085;BME280;2057;50.858;6.572;2023-05-01T03:32:45;100268.69;;;10.69;100.00
4085;BME280;2057;50.858;6.572;2023-05-01T03:35:11;100264.13;;;10.81;100.00
4085;BME280;2057;50.858;6.572;2023-05-01T03:47:51;100255.72;;;10.82;100.00
4085;BME280;2057;50.858;6.572;2023-05-01T03:50:19;100253.19;;;10.82;100.00
4085;BME280;2057;50.858;6.572;2023-05-01T03:52:47;100256.72;;;10.66;100.00
4085;BME280;2057;50.858;6.572;2023-05-01T03:55:12;100252.38;;;10.63;100.00
4085;BME280;2057;50.858;6.572;2023-05-01T03:57:38;100246.50;;;10.64;100.00
4085;BME280;2057;50.858;6.572;2023-05-01T04:00:03;100252.72;;;10.71;100.00
4085;BME280;2057;50.858;6.572;2023-05-01T04:02:31;100246.91;;;10.74;100.00
4085;BME280;2057;50.858;6.572;2023-05-01T04:07:29;100249.25;;;10.89;100.00
4085;BME280;2057;50.858;6.572;2023-05-01T04:09:54;100239.75;;;10.85;100.00
4085;BME280;2057;50.858;6.572;2023-05-01T04:17:22;100251.72;;;10.87;100.00
4085;BME280;2057;50.858;6.572;2023-05-01T05:24:14;100241.44;;;11.04;100.00
4085;BME280;2057;50.858;6.572;2023-05-01T05:31:48;100251.31;;;10.97;100.00
4085;BME280;2057;50.858;6.572;2023-05-01T05:34:13;100246.75;;;10.90;100.00
4085;BME280;2057;50.858;6.572;2023-05-01T05:36:38;100242.03;;;10.98;100.00
4085;BME280;2057;50.858;6.572;2023-05-01T05:39:04;100246.56;;;11.05;100.00
4085;BME280;2057;50.858;6.572;2023-05-01T05:41:29;100239.16;;;11.10;100.00
4085;BME280;2057;50.858;6.572;2023-05-01T05:43:54;100234.66;;;11.24;100.00
4085;BME280;2057;50.858;6.572;2023-05-01T05:46:20;100240.47;;;11.21;100.00
4085;BME280;2057;50.858;6.572;2023-05-01T05:48:45;100239.69;;;11.22;100.00
4085;BME280;2057;50.858;6.572;2023-05-01T05:51:11;100238.59;;;11.17;100.00
4085;BME280;2057;50.858;6.572;2023-05-01T05:53:37;100241.38;;;11.23;100.00
4085;BME280;2057;50.858;6.572;2023-05-01T05:56:05;100238.44;;;11.34;100.00
4085;BME280;2057;50.858;6.572;2023-05-01T05:58:31;100231.94;;;11.40;100.00
4085;BME280;2057;50.858;6.572;2023-05-01T06:00:56;100235.28;;;11.39;100.00
4085;BME280;2057;50.858;6.572;2023-05-01T06:03:21;100236.28;;;11.43;100.00
4085;BME280;2057;50.858;6.572;2023-05-01T06:05:50;100231.94;;;11.40;100.00
4085;BME280;2057;50.858;6.572;2023-05-01T06:08:15;100229.47;;;11.42;100.00
4085;BME280;2057;50.858;6.572;2023-05-01T06:10:42;100226.44;;;11.51;99.70
4085;BME280;2057;50.858;6.572;2023-05-01T06:13:08;100225.75;;;11.55;99.27
4085;BME280;2057;50.858;6.572;2023-05-01T06:15:37;100234.16;;;11.54;97.79
4085;BME280;2057;50.858;6.572;2023-05-01T06:18:02;100238.06;;;11.67;97.62
4085;BME280;2057;50.858;6.572;2023-05-01T06:20:28;100223.88;;;11.72;97.34
4085;BME280;2057;50.858;6.572;2023-05-01T06:22:53;100227.41;;;11.75;96.62
4085;BME280;2057;50.858;6.572;2023-05-01T06:25:19;100227.66;;;11.82;97.13
4085;BME280;2057;50.858;6.572;2023-05-01T06:27:47;100231.09;;;11.82;95.56
4085;BME280;2057;50.858;6.572;2023-05-01T06:30:12;100223.81;;;11.91;95.60
4085;BME280;2057;50.858;6.572;2023-05-01T06:32:38;100222.88;;;11.89;95.27
4085;BME280;2057;50.858;6.572;2023-05-01T06:35:03;100232.25;;;11.90;95.02
4085;BME280;2057;50.858;6.572;2023-05-01T06:37:29;100229.59;;;11.87;95.49
4085;BME280;2057;50.858;6.572;2023-05-01T06:39:54;100223.28;;;11.99;95.33
4085;BME280;2057;50.858;6.572;2023-05-01T06:42:20;100220.78;;;12.00;95.79
4085;BME280;2057;50.858;6.572;2023-05-01T06:44:45;100228.53;;;12.03;95.83
4085;BME280;2057;50.858;6.572;2023-05-01T06:47:11;100224.72;;;11.93;94.86
4085;BME280;2057;50.858;6.572;2023-05-01T06:49:36;100226.06;;;12.05;93.45
4085;BME280;2057;50.858;6.572;2023-05-01T06:52:02;100228.66;;;12.06;93.20
4085;BME280;2057;50.858;6.572;2023-05-01T06:54:27;100221.38;;;12.16;93.72
4085;BME280;2057;50.858;6.572;2023-05-01T06:56:53;100223.22;;;12.20;92.58
4085;BME280;2057;50.858;6.572;2023-05-01T06:59:19;100224.78;;;12.16;91.14
4085;BME280;2057;50.858;6.572;2023-05-01T07:01:44;100227.88;;;12.30;91.83
4085;BME280;2057;50.858;6.572;2023-05-01T07:04:10;100221.25;;;12.35;91.25
4085;BME280;2057;50.858;6.572;2023-05-01T07:06:35;100216.97;;;12.34;92.14
4085;BME280;2057;50.858;6.572;2023-05-01T07:11:36;100215.69;;;12.46;91.02
4085;BME280;2057;50.858;6.572;2023-05-01T07:14:02;100215.41;;;12.61;91.60
4085;BME280;2057;50.858;6.572;2023-05-01T07:16:28;100218.84;;;12.63;91.61
4085;BME280;2057;50.858;6.572;2023-05-01T07:18:53;100218.41;;;12.75;91.30
4085;BME280;2057;50.858;6.572;2023-05-01T07:21:18;100214.38;;;12.80;90.09
4085;BME280;2057;50.858;6.572;2023-05-01T07:23:43;100213.13;;;12.93;91.27
4085;BME280;2057;50.858;6.572;2023-05-01T07:26:09;100212.78;;;13.08;91.50
4085;BME280;2057;50.858;6.572;2023-05-01T07:28:34;100215.03;;;13.24;91.46
4085;BME280;2057;50.858;6.572;2023-05-01T07:31:00;100213.06;;;13.41;91.90
4085;BME280;2057;50.858;6.572;2023-05-01T07:33:26;100211.63;;;13.49;91.59
4085;BME280;2057;50.858;6.572;2023-05-01T07:35:52;100212.91;;;13.62;90.69
4085;BME280;2057;50.858;6.572;2023-05-01T07:38:17;100208.75;;;13.66;89.51
4085;BME280;2057;50.858;6.572;2023-05-01T07:40:43;100207.28;;;13.73;89.48
4085;BME280;2057;50.858;6.572;2023-05-01T07:43:08;100205.69;;;13.76;87.42
4085;BME280;2057;50.858;6.572;2023-05-01T07:45:37;100209.63;;;13.94;87.92
4085;BME280;2057;50.858;6.572;2023-05-01T07:48:03;100201.69;;;13.85;86.64
4085;BME280;2057;50.858;6.572;2023-05-01T07:50:29;100210.66;;;13.99;89.00
4085;BME280;2057;50.858;6.572;2023-05-01T07:52:55;100208.41;;;14.10;87.52
4085;BME280;2057;50.858;6.572;2023-05-01T07:55:21;100201.53;;;14.07;85.99
4085;BME280;2057;50.858;6.572;2023-05-01T07:57:47;100202.50;;;14.11;86.27
4085;BME280;2057;50.858;6.572;2023-05-01T08:00:13;100209.41;;;14.15;86.16
4085;BME280;2057;50.858;6.572;2023-05-01T08:02:38;100203.50;;;14.18;88.31
4085;BME280;2057;50.858;6.572;2023-05-01T08:05:05;100209.81;;;14.29;86.67
4085;BME280;2057;50.858;6.572;2023-05-01T08:07:30;100206.53;;;14.33;84.84
4085;BME280;2057;50.858;6.572;2023-05-01T08:09:58;100207.41;;;14.34;85.06
4085;BME280;2057;50.858;6.572;2023-05-01T08:12:32;100214.53;;;14.46;84.63
4085;BME280;2057;50.858;6.572;2023-05-01T08:14:57;100215.44;;;14.46;85.50
4085;BME280;2057;50.858;6.572;2023-05-01T08:17:23;100221.81;;;14.62;85.89
4085;BME280;2057;50.858;6.572;2023-05-01T08:19:48;100224.34;;;14.61;83.33
4085;BME280;2057;50.858;6.572;2023-05-01T08:22:14;100227.69;;;14.58;83.25
4085;BME280;2057;50.858;6.572;2023-05-01T08:24:39;100230.59;;;14.70;81.05
4085;BME280;2057;50.858;6.572;2023-05-01T08:27:06;100226.66;;;14.53;80.51
4085;BME280;2057;50.858;6.572;2023-05-01T08:29:34;100224.50;;;14.36;82.45
4085;BME280;2057;50.858;6.572;2023-05-01T08:31:59;100218.44;;;14.63;80.95
4085;BME280;2057;50.858;6.572;2023-05-01T08:34:25;100219.00;;;14.53;81.83
4085;BME280;2057;50.858;6.572;2023-05-01T08:36:50;100223.53;;;14.62;81.17
4085;BME280;2057;50.858;6.572;2023-05-01T08:44:27;100223.53;;;14.92;80.69
4085;BME280;2057;50.858;6.572;2023-05-01T08:52:10;100220.69;;;15.15;77.56
4085;BME280;2057;50.858;6.572;2023-05-01T08:54:41;100224.97;;;15.14;77.72
4085;BME280;2057;50.858;6.572;2023-05-01T08:57:09;100220.91;;;15.23;76.80
4085;BME280;2057;50.858;6.572;2023-05-01T08:59:36;100212.72;;;15.36;74.82
4085;BME280;2057;50.858;6.572;2023-05-01T09:02:04;100214.84;;;15.19;73.71
4085;BME280;2057;50.858;6.572;2023-05-01T09:04:34;100210.25;;;15.39;76.09
4085;BME280;2057;50.858;6.572;2023-05-01T09:07:01;100213.13;;;15.51;77.32
4085;BME280;2057;50.858;6.572;2023-05-01T09:09:27;100209.41;;;15.77;74.32
4085;BME280;2057;50.858;6.572;2023-05-01T09:11:55;100205.22;;;15.80;73.41
4085;BME280;2057;50.858;6.572;2023-05-01T09:14:21;100217.75;;;15.68;73.05
4085;BME280;2057;50.858;6.572;2023-05-01T09:16:47;100209.88;;;15.95;74.71
4085;BME280;2057;50.858;6.572;2023-05-01T09:19:16;100209.75;;;15.89;75.49
4085;BME280;2057;50.858;6.572;2023-05-01T09:21:41;100209.28;;;16.07;73.83
4085;BME280;2057;50.858;6.572;2023-05-01T09:24:07;100205.16;;;16.14;74.50
4085;BME280;2057;50.858;6.572;2023-05-01T09:26:33;100205.28;;;16.20;72.70
4085;BME280;2057;50.858;6.572;2023-05-01T09:29:01;100204.22;;;16.50;72.79
4085;BME280;2057;50.858;6.572;2023-05-01T09:31:28;100205.25;;;16.61;71.80
4085;BME280;2057;50.858;6.572;2023-05-01T09:33:54;100202.94;;;16.72;72.66
4085;BME280;2057;50.858;6.572;2023-05-01T09:36:21;100198.00;;;16.83;70.18
4085;BME280;2057;50.858;6.572;2023-05-01T09:38:47;100210.00;;;16.84;69.20
4085;BME280;2057;50.858;6.572;2023-05-01T09:41:13;100199.13;;;16.98;68.66
4085;BME280;2057;50.858;6.572;2023-05-01T09:43:38;100199.66;;;16.80;70.68
4085;BME280;2057;50.858;6.572;2023-05-01T09:46:09;100202.69;;;17.06;70.88
4085;BME280;2057;50.858;6.572;2023-05-01T09:48:37;100198.66;;;17.19;70.67
4085;BME280;2057;50.858;6.572;2023-05-01T09:51:22;100197.28;;;17.38;68.86
4085;BME280;2057;50.858;6.572;2023-05-01T09:53:48;100201.34;;;17.25;67.48
4085;BME280;2057;50.858;6.572;2023-05-01T09:56:13;100199.03;;;17.42;67.46
4085;BME280;2057;50.858;6.572;2023-05-01T09:58:39;100199.03;;;17.42;66.79
4085;BME280;2057;50.858;6.572;2023-05-01T10:01:04;100194.25;;;17.12;67.53
4085;BME280;2057;50.858;6.572;2023-05-01T10:03:33;100201.50;;;16.88;69.30
4085;BME280;2057;50.858;6.572;2023-05-01T10:05:58;100187.63;;;17.24;69.27
4085;BME280;2057;50.858;6.572;2023-05-01T10:08:43;100195.56;;;16.91;68.47
4085;BME280;2057;50.858;6.572;2023-05-01T10:11:08;100196.50;;;16.93;68.89
4085;BME280;2057;50.858;6.572;2023-05-01T10:13:34;100195.44;;;16.85;72.19
4085;BME280;2057;50.858;6.572;2023-05-01T10:15:59;100203.81;;;16.74;72.59
4085;BME280;2057;50.858;6.572;2023-05-01T10:18:27;100190.91;;;16.70;71.99
4085;BME280;2057;50.858;6.572;2023-05-01T10:20:55;100198.03;;;16.85;72.18
4085;BME280;2057;50.858;6.572;2023-05-01T10:23:20;100189.09;;;17.10;70.30
4085;BME280;2057;50.858;6.572;2023-05-01T10:25:48;100192.59;;;17.14;65.54
4085;BME280;2057;50.858;6.572;2023-05-01T10:28:14;100193.50;;;17.17;66.09
4085;BME280;2057;50.858;6.572;2023-05-01T10:30:42;100193.59;;;17.23;64.30
4085;BME280;2057;50.858;6.572;2023-05-01T10:33:12;100189.53;;;17.35;65.08
4085;BME280;2057;50.858;6.572;2023-05-01T10:35:39;100190.13;;;17.21;66.50
4085;BME280;2057;50.858;6.572;2023-05-01T10:38:12;100194.41;;;17.21;65.63
4085;BME280;2057;50.858;6.572;2023-05-01T10:43:15;100187.88;;;17.40;68.11
4085;BME280;2057;50.858;6.572;2023-05-01T10:45:44;100188.63;;;17.33;66.98
4085;BME280;2057;50.858;6.572;2023-05-01T10:48:11;100185.00;;;17.21;68.89
4085;BME280;2057;50.858;6.572;2023-05-01T10:59:03;100184.00;;;17.13;72.59
4085;BME280;2057;50.858;6.572;2023-05-01T11:03:56;100183.47;;;17.31;69.96
4085;BME280;2057;50.858;6.572;2023-05-01T11:06:23;100186.44;;;17.56;69.96
4085;BME280;2057;50.858;6.572;2023-05-01T11:08:48;100183.81;;;17.53;68.67
4085;BME280;2057;50.858;6.572;2023-05-01T11:13:59;100181.50;;;17.70;68.12
4085;BME280;2057;50.858;6.572;2023-05-01T11:21:48;100187.91;;;17.97;66.18
4085;BME280;2057;50.858;6.572;2023-05-01T11:24:14;100190.50;;;18.00;64.36
4085;BME280;2057;50.858;6.572;2023-05-01T11:26:41;100185.53;;;18.12;66.15
4085;BME280;2057;50.858;6.572;2023-05-01T11:29:10;100185.34;;;17.98;65.36
4085;BME280;2057;50.858;6.572;2023-05-01T11:31:37;100181.13;;;18.02;66.98
4085;BME280;2057;50.858;6.572;2023-05-01T11:34:03;100177.97;;;17.65;65.84
4085;BME280;2057;50.858;6.572;2023-05-01T11:36:46;100175.31;;;17.57;66.73
4085;BME280;2057;50.858;6.572;2023-05-01T11:39:14;100185.00;;;17.75;65.78
4085;BME280;2057;50.858;6.572;2023-05-01T11:41:41;100180.22;;;18.00;64.17
4085;BME280;2057;50.858;6.572;2023-05-01T11:44:07;100174.41;;;18.13;63.53
4085;BME280;2057;50.858;6.572;2023-05-01T11:46:32;100182.00;;;18.04;65.60
4085;BME280;2057;50.858;6.572;2023-05-01T11:48:59;100178.78;;;18.21;65.14
4085;BME280;2057;50.858;6.572;2023-05-01T11:51:28;100174.63;;;18.30;65.68
4085;BME280;2057;50.858;6.572;2023-05-01T11:54:04;100164.38;;;18.35;65.49
4085;BME280;2057;50.858;6.572;2023-05-01T11:56:31;100169.81;;;18.60;64.67
4085;BME280;2057;50.858;6.572;2023-05-01T11:58:59;100160.66;;;18.87;64.95
4085;BME280;2057;50.858;6.572;2023-05-01T12:03:59;100157.19;;;18.80;63.43
4085;BME280;2057;50.858;6.572;2023-05-01T12:06:35;100155.72;;;19.02;63.94
4085;BME280;2057;50.858;6.572;2023-05-01T12:09:02;100151.38;;;19.00;64.06
4085;BME280;2057;50.858;6.572;2023-05-01T12:11:28;100154.03;;;19.06;64.79
4085;BME280;2057;50.858;6.572;2023-05-01T12:13:53;100155.00;;;19.22;62.77
4085;BME280;2057;50.858;6.572;2023-05-01T12:16:19;100155.88;;;19.22;64.46
4085;BME280;2057;50.858;6.572;2023-05-01T12:18:44;100153.22;;;19.11;61.89
4085;BME280;2057;50.858;6.572;2023-05-01T12:21:14;100162.03;;;18.52;62.44
4085;BME280;2057;50.858;6.572;2023-05-01T12:23:41;100157.94;;;18.68;61.25
4085;BME280;2057;50.858;6.572;2023-05-01T12:26:24;100157.97;;;18.74;62.30
4085;BME280;2057;50.858;6.572;2023-05-01T12:28:56;100145.91;;;18.67;61.51
4085;BME280;2057;50.858;6.572;2023-05-01T12:31:22;100145.88;;;18.64;62.16
4085;BME280;2057;50.858;6.572;2023-05-01T12:33:55;100150.78;;;18.42;62.84
4085;BME280;2057;50.858;6.572;2023-05-01T12:36:25;100133.91;;;18.69;60.41
4085;BME280;2057;50.858;6.572;2023-05-01T12:41:31;100145.72;;;18.50;62.89
4085;BME280;2057;50.858;6.572;2023-05-01T12:43:57;100139.13;;;18.78;62.02
4085;BME280;2057;50.858;6.572;2023-05-01T12:46:22;100142.41;;;18.62;55.98
4085;BME280;2057;50.858;6.572;2023-05-01T12:48:49;100139.81;;;18.59;54.07
4085;BME280;2057;50.858;6.572;2023-05-01T12:51:19;100136.47;;;18.66;55.22
4085;BME280;2057;50.858;6.572;2023-05-01T12:53:44;100136.28;;;18.49;55.60
4085;BME280;2057;50.858;6.572;2023-05-01T12:56:19;100138.63;;;18.29;56.48
4085;BME280;2057;50.858;6.572;2023-05-01T12:58:47;100139.44;;;18.25;56.91
4085;BME280;2057;50.858;6.572;2023-05-01T13:01:25;100138.56;;;18.26;57.95
4085;BME280;2057;50.858;6.572;2023-05-01T13:03:52;100135.16;;;18.24;58.49
4085;BME280;2057;50.858;6.572;2023-05-01T13:06:18;100127.78;;;18.55;57.46
4085;BME280;2057;50.858;6.572;2023-05-01T13:08:44;100138.56;;;18.23;57.10
4085;BME280;2057;50.858;6.572;2023-05-01T13:13:35;100133.63;;;18.41;60.30
4085;BME280;2057;50.858;6.572;2023-05-01T13:18:48;100142.53;;;17.97;58.74
4085;BME280;2057;50.858;6.572;2023-05-01T13:21:16;100147.25;;;17.69;59.01
4085;BME280;2057;50.858;6.572;2023-05-01T13:23:57;100154.38;;;17.31;60.80
4085;BME280;2057;50.858;6.572;2023-05-01T13:26:27;100155.59;;;17.01;61.86
4085;BME280;2057;50.858;6.572;2023-05-01T13:28:53;100162.72;;;17.17;61.98
4085;BME280;2057;50.858;6.572;2023-05-01T13:31:19;100167.13;;;17.26;63.29
4085;BME280;2057;50.858;6.572;2023-05-01T13:33:45;100163.06;;;17.39;62.84
4085;BME280;2057;50.858;6.572;2023-05-01T13:36:13;100168.50;;;17.05;65.17
4085;BME280;2057;50.858;6.572;2023-05-01T13:38:45;100167.78;;;17.14;63.74
4085;BME280;2057;50.858;6.572;2023-05-01T13:41:15;100166.75;;;17.03;65.63
4085;BME280;2057;50.858;6.572;2023-05-01T13:43:41;100176.94;;;17.00;66.83
4085;BME280;2057;50.858;6.572;2023-05-01T13:46:09;100183.19;;;16.70;65.61
4085;BME280;2057;50.858;6.572;2023-05-01T13:48:35;100193.22;;;15.76;73.64
4085;BME280;2057;50.858;6.572;2023-05-01T13:51:01;100197.06;;;15.24;76.37
4085;BME280;2057;50.858;6.572;2023-05-01T13:53:26;100198.84;;;15.26;78.13
4085;BME280;2057;50.858;6.572;2023-05-01T13:55:52;100210.44;;;15.13;76.86
4085;BME280;2057;50.858;6.572;2023-05-01T13:58:17;100220.97;;;14.92;78.02
4085;BME280;2057;50.858;6.572;2023-05-01T14:00:43;100232.81;;;14.59;78.74
4085;BME280;2057;50.858;6.572;2023-05-01T14:03:09;100249.88;;;14.61;79.95
4085;BME280;2057;50.858;6.572;2023-05-01T14:05:35;100253.19;;;14.56;80.85
4085;BME280;2057;50.858;6.572;2023-05-01T14:08:00;100251.09;;;14.72;84.08
4085;BME280;2057;50.858;6.572;2023-05-01T14:10:27;100249.75;;;14.27;90.18
4085;BME280;2057;50.858;6.572;2023-05-01T14:12:59;100260.59;;;13.91;94.09
4085;BME280;2057;50.858;6.572;2023-05-01T14:15:25;100260.84;;;13.73;98.50
4085;BME280;2057;50.858;6.572;2023-05-01T14:17:50;100266.78;;;13.46;99.92
4085;BME280;2057;50.858;6.572;2023-05-01T14:20:17;100272.31;;;13.34;100.00
4085;BME280;2057;50.858;6.572;2023-05-01T14:22:44;100278.50;;;13.16;100.00
4085;BME280;2057;50.858;6.572;2023-05-01T14:25:30;100281.19;;;12.97;100.00
4085;BME280;2057;50.858;6.572;2023-05-01T14:27:57;100281.28;;;12.76;100.00
4085;BME280;2057;50.858;6.572;2023-05-01T14:30:31;100294.19;;;12.56;100.00
4085;BME280;2057;50.858;6.572;2023-05-01T14:33:09;100286.34;;;12.29;100.00
4085;BME280;2057;50.858;6.572;2023-05-01T14:35:47;100286.66;;;12.36;100.00
4085;BME280;2057;50.858;6.572;2023-05-01T14:38:17;100293.94;;;12.50;100.00
4085;BME280;2057;50.858;6.572;2023-05-01T14:40:43;100286.88;;;12.65;100.00
4085;BME280;2057;50.858;6.572;2023-05-01T14:43:12;100283.56;;;12.68;100.00
4085;BME280;2057;50.858;6.572;2023-05-01T14:45:42;100278.91;;;13.03;100.00
4085;BME280;2057;50.858;6.572;2023-05-01T14:48:16;100261.34;;;13.37;100.00
4085;BME280;2057;50.858;6.572;2023-05-01T14:50:44;100262.78;;;13.54;100.00
4085;BME280;2057;50.858;6.572;2023-05-01T14:53:10;100260.81;;;13.45;100.00
4085;BME280;2057;50.858;6.572;2023-05-01T14:55:36;100264.19;;;13.20;100.00
4085;BME280;2057;50.858;6.572;2023-05-01T14:58:03;100262.44;;;13.43;100.00
4085;BME280;2057;50.858;6.572;2023-05-01T15:00:28;100259.81;;;13.93;100.00
4085;BME280;2057;50.858;6.572;2023-05-01T15:02:54;100262.63;;;14.30;100.00
4085;BME280;2057;50.858;6.572;2023-05-01T15:05:19;100256.50;;;14.54;100.00
4085;BME280;2057;50.858;6.572;2023-05-01T15:07:46;100252.97;;;15.10;100.00
4085;BME280;2057;50.858;6.572;2023-05-01T15:10:11;100249.72;;;15.84;100.00
4085;BME280;2057;50.858;6.572;2023-05-01T15:12:37;100251.50;;;15.87;98.48
4085;BME280;2057;50.858;6.572;2023-05-01T15:15:03;100251.66;;;15.94;95.04
4085;BME280;2057;50.858;6.572;2023-05-01T15:17:29;100250.25;;;15.72;96.81
4085;BME280;2057;50.858;6.572;2023-05-01T15:19:54;100259.06;;;15.15;95.03
4085;BME280;2057;50.858;6.572;2023-05-01T15:22:19;100260.81;;;14.84;97.34
4085;BME280;2057;50.858;6.572;2023-05-01T15:24:45;100260.78;;;14.82;96.67
4085;BME280;2057;50.858;6.572;2023-05-01T15:27:11;100259.19;;;14.87;97.52
4085;BME280;2057;50.858;6.572;2023-05-01T15:29:36;100262.06;;;15.32;96.80
4085;BME280;2057;50.858;6.572;2023-05-01T15:32:01;100259.66;;;15.38;93.56
4085;BME280;2057;50.858;6.572;2023-05-01T15:34:27;100261.47;;;15.09;95.61
4085;BME280;2057;50.858;6.572;2023-05-01T15:36:53;100264.66;;;15.67;93.23
4085;BME280;2057;50.858;6.572;2023-05-01T15:39:18;100270.97;;;16.17;89.17
4085;BME280;2057;50.858;6.572;2023-05-01T15:41:44;100273.53;;;16.58;87.08
4085;BME280;2057;50.858;6.572;2023-05-01T15:44:10;100265.88;;;16.99;86.96
4085;BME280;2057;50.858;6.572;2023-05-01T15:46:36;100266.69;;;17.47;83.50
4085;BME280;2057;50.858;6.572;2023-05-01T15:49:02;100264.66;;;16.82;81.04
4085;BME280;2057;50.858;6.572;2023-05-01T15:51:29;100266.50;;;16.08;85.11
4085;BME280;2057;50.858;6.572;2023-05-01T15:53:56;100273.31;;;15.74;85.04
4085;BME280;2057;50.858;6.572;2023-05-01T15:56:21;100286.28;;;15.45;89.90